Time;durP1;ratioP1;P1;durP2;ratioP2;P2;SDS_P1;SDS_P2;PMS_P1;PMS_P2;Temp;Humidity;BMP_temperature;BMP_pressure;BME280_temperature;BME280_humidity;BME280_pressure;Samples;Min_cycle;Max_cycle;Signal;HPM_P1;HPM_P2
2022/01/14 00:04:29;;;;;;;3.43;2.33;;;;;;;-1.44;79.01;97387.63;5731742;24;20382;-80
2022/01/14 00:15:23;;;;;;;2.77;2.00;;;;;;;-1.58;81.92;97375.16;5662358;25;20339;-80
2022/01/14 00:18:33;;;;;;;;;;;;;;;;;;;;;
2022/01/14 00:21:41;;;;;;;1.83;1.40;;;;;;;-1.62;81.64;97375.22;5689958;25;20245;-80
2022/01/14 00:38:40;;;;;;;3.37;2.00;;;;;;;-1.72;82.17;97374.56;5689872;25;20333;-80
2022/01/14 00:42:04;;;;;;;2.63;1.93;;;;;;;-1.69;81.97;97369.41;5698113;25;20167;-80
2022/01/14 00:48:20;;;;;;;2.30;1.77;;;;;;;-1.59;81.11;97357.31;5714655;25;20222;-79
2022/01/14 01:01:43;;;;;;;;;;;;;;;;;;;;;
2022/01/14 01:08:22;;;;;;;;;;;;;;;;;;;;;
2022/01/14 01:14:38;;;;;;;;;;;;;;;;;;;;;
2022/01/14 01:23:35;;;;;;;0.87;0.70;;;;;;;-1.52;80.55;97347.00;5777172;24;20167;-81
2022/01/14 01:26:19;;;;;;;1.30;0.80;;;;;;;-1.50;80.66;97345.28;5896407;24;20168;-82
2022/01/14 01:29:04;;;;;;;1.10;0.70;;;;;;;-1.54;80.73;97346.19;5906746;24;20202;-82
2022/01/14 01:31:45;;;;;;;2.43;0.80;;;;;;;-1.53;80.95;97352.97;6034317;23;20282;-81
2022/01/14 01:34:27;;;;;;;1.73;0.90;;;;;;;-1.57;80.79;97348.81;6090405;23;20157;-81
2022/01/14 01:37:11;;;;;;;1.63;0.83;;;;;;;-1.59;81.29;97355.66;6136248;23;20165;-82
2022/01/14 01:39:51;;;;;;;0.90;0.80;;;;;;;-1.59;81.50;97354.78;6136376;23;20165;-82
2022/01/14 01:42:28;;;;;;;1.30;1.20;;;;;;;-1.59;81.15;97355.66;6135116;23;20143;-82
2022/01/14 01:45:22;;;;;;;1.00;0.73;;;;;;;-1.60;81.05;97361.59;6136487;23;20186;-82
2022/01/14 01:47:54;;;;;;;0.80;0.80;;;;;;;-1.59;80.83;97359.88;6137040;23;20635;-82
2022/01/14 01:50:36;;;;;;;1.43;1.00;;;;;;;-1.60;80.87;97373.50;6136162;23;20481;-82
2022/01/14 01:53:10;;;;;;;1.40;1.00;;;;;;;-1.64;81.38;97367.63;6134910;23;20137;-82
2022/01/14 01:55:36;;;;;;;0.97;0.93;;;;;;;-1.70;81.41;97365.19;6136434;23;20162;-82
2022/01/14 01:58:03;;;;;;;1.63;1.00;;;;;;;-1.71;81.69;97363.50;6135912;23;20252;-82
2022/01/14 02:00:29;;;;;;;1.30;1.00;;;;;;;-1.73;81.33;97361.00;6136840;23;20166;-81
2022/01/14 02:02:58;;;;;;;2.03;1.20;;;;;;;-1.74;81.44;97355.94;6135612;23;20193;-81
2022/01/14 02:05:26;;;;;;;1.30;1.00;;;;;;;-1.76;81.54;97352.59;6137820;23;20256;-81
2022/01/14 02:07:57;;;;;;;1.03;0.70;;;;;;;-1.73;80.87;97355.06;6115793;23;20228;-81
2022/01/14 02:10:25;;;;;;;1.27;0.87;;;;;;;-1.75;81.16;97346.63;6138179;23;20256;-81
2022/01/14 02:12:53;;;;;;;1.13;0.90;;;;;;;-1.70;80.05;97349.91;6141506;23;20166;-81
2022/01/14 02:23:23;;;;;;;0.60;0.60;;;;;;;-1.73;79.65;97343.16;6144446;23;20192;-81
2022/01/14 02:25:52;;;;;;;0.93;0.70;;;;;;;-1.73;79.58;97337.22;6140860;23;20498;-81
2022/01/14 02:28:18;;;;;;;0.70;0.70;;;;;;;-1.71;79.40;97335.50;6140139;23;20194;-80
2022/01/14 02:30:46;;;;;;;1.00;0.80;;;;;;;-1.72;78.93;97334.66;6114505;23;20166;-81
2022/01/14 02:33:12;;;;;;;0.60;0.60;;;;;;;-1.69;79.00;97328.66;6138083;23;20174;-81
2022/01/14 02:35:39;;;;;;;2.20;0.80;;;;;;;-1.57;77.24;97335.22;6114207;23;20157;-80
2022/01/14 02:38:06;;;;;;;1.13;0.60;;;;;;;-1.40;74.85;97329.81;6113112;23;20176;-81
2022/01/14 02:40:31;;;;;;;0.53;0.53;;;;;;;-1.40;74.59;97325.53;6137843;23;20677;-80
2022/01/14 02:43:00;;;;;;;0.77;0.53;;;;;;;-1.37;74.04;97322.09;6136857;23;20158;-82
2022/01/14 02:45:30;;;;;;;0.43;0.43;;;;;;;-1.37;74.18;97319.53;6138713;23;20356;-81
2022/01/14 02:47:58;;;;;;;0.67;0.60;;;;;;;-1.36;74.13;97314.41;6138338;23;20178;-81
2022/01/14 02:50:25;;;;;;;0.57;0.53;;;;;;;-1.42;74.06;97307.72;6134443;23;20655;-80
2022/01/14 02:55:27;;;;;;;0.83;0.57;;;;;;;-1.48;74.62;97312.13;6139294;23;20162;-82
2022/01/14 02:57:53;;;;;;;1.43;0.60;;;;;;;-1.48;75.08;97322.31;6114229;23;20203;-82
2022/01/14 03:00:30;;;;;;;1.60;0.70;;;;;;;-1.53;75.51;97311.34;6114055;23;20196;-82
2022/01/14 03:02:58;;;;;;;1.00;0.70;;;;;;;-1.59;75.90;97304.69;6138316;23;20591;-82
2022/01/14 03:05:23;;;;;;;1.57;1.10;;;;;;;-1.61;76.36;97301.31;6138899;23;20165;-82
2022/01/14 03:07:49;;;;;;;0.73;0.73;;;;;;;-1.62;77.12;97309.00;6138997;23;20212;-81
2022/01/14 03:10:16;;;;;;;1.80;0.60;;;;;;;-1.67;76.99;97309.09;6138669;23;20184;-81
2022/01/14 03:12:43;;;;;;;0.87;0.70;;;;;;;-1.70;77.46;97298.97;6114691;23;20161;-81
2022/01/14 03:15:09;;;;;;;0.70;0.70;;;;;;;-1.69;77.25;97304.88;6115402;23;20174;-80
2022/01/14 03:17:34;;;;;;;0.60;0.60;;;;;;;-1.68;77.21;97291.28;6139508;23;20205;-81
2022/01/14 03:20:01;;;;;;;1.27;0.70;;;;;;;-1.65;77.59;97286.97;6116733;23;20497;-80
2022/01/14 03:22:35;;;;;;;0.57;0.50;;;;;;;-1.63;77.36;97286.94;6139747;23;20180;-80
2022/01/14 03:27:45;;;;;;;1.00;0.63;;;;;;;-1.60;77.54;97277.53;6146827;23;20201;-80
2022/01/14 03:30:12;;;;;;;0.70;0.63;;;;;;;-1.59;77.31;97271.59;6118668;23;20167;-81
2022/01/14 03:32:37;;;;;;;0.90;0.70;;;;;;;-1.56;77.14;97276.59;6143402;23;20217;-81
2022/01/14 03:35:03;;;;;;;0.53;0.50;;;;;;;-1.54;77.03;97272.31;6143314;23;20535;-81
2022/01/14 03:37:28;;;;;;;0.83;0.60;;;;;;;-1.52;77.26;97268.00;6118729;23;20186;-82
2022/01/14 03:39:53;;;;;;;1.90;0.77;;;;;;;-1.48;76.46;97273.91;6118948;23;20165;-82
2022/01/14 03:42:18;;;;;;;1.43;0.80;;;;;;;-1.38;75.67;97264.34;6118498;23;20176;-82
2022/01/14 03:44:44;;;;;;;1.83;0.70;;;;;;;-1.32;75.30;97270.16;6119295;23;20190;-80
2022/01/14 03:47:09;;;;;;;0.70;0.70;;;;;;;-1.28;74.77;97273.47;6144528;23;20229;-81
2022/01/14 03:49:34;;;;;;;1.83;0.80;;;;;;;-1.27;75.04;97275.13;6144692;23;20159;-80
2022/01/14 03:52:00;;;;;;;0.60;0.50;;;;;;;-1.24;74.89;97275.91;6143053;23;20186;-82
2022/01/14 03:54:25;;;;;;;0.57;0.47;;;;;;;-1.23;74.96;97264.00;6118425;23;20158;-82
2022/01/14 03:56:50;;;;;;;0.57;0.50;;;;;;;-1.23;74.75;97267.41;6121144;23;20680;-82
2022/01/14 03:59:16;;;;;;;0.50;0.40;;;;;;;-1.25;75.00;97268.28;6145587;23;20153;-82
2022/01/14 04:01:41;;;;;;;0.37;0.37;;;;;;;-1.31;75.02;97269.28;6145593;23;20597;-80
2022/01/14 04:04:06;;;;;;;0.33;0.33;;;;;;;-1.35;75.38;97266.81;6146831;23;20235;-81
2022/01/14 04:06:32;;;;;;;0.87;0.30;;;;;;;-1.36;75.35;97265.13;6146300;23;20260;-82
2022/01/14 04:08:57;;;;;;;0.30;0.30;;;;;;;-1.37;75.70;97263.47;6145636;23;20180;-82
2022/01/14 04:11:23;;;;;;;0.90;0.40;;;;;;;-1.40;75.45;97258.44;6145774;23;20163;-82
2022/01/14 04:13:52;;;;;;;0.40;0.40;;;;;;;-1.44;75.74;97260.22;6122893;23;20161;-81
2022/01/14 04:16:19;;;;;;;0.80;0.50;;;;;;;-1.45;76.63;97256.81;6146904;23;20190;-80
2022/01/14 04:18:44;;;;;;;2.93;1.27;;;;;;;-1.48;76.69;97249.25;6147701;23;20182;-79
2022/01/14 04:21:10;;;;;;;2.93;1.33;;;;;;;-1.49;76.80;97250.13;6146810;23;20229;-81
2022/01/14 04:23:35;;;;;;;4.67;1.80;;;;;;;-1.50;77.06;97251.00;6151326;23;20206;-80
2022/01/14 04:26:01;;;;;;;3.27;0.80;;;;;;;-1.45;76.99;97248.34;6153563;23;20166;-80
2022/01/14 04:28:33;;;;;;;2.33;0.90;;;;;;;-1.42;76.76;97246.56;6154112;23;20178;-81
2022/01/14 04:30:59;;;;;;;0.60;0.60;;;;;;;-1.35;76.79;97241.31;6129447;23;20173;-81
2022/01/14 04:33:25;;;;;;;0.97;0.70;;;;;;;-1.34;77.07;97243.00;6124687;23;20168;-80
2022/01/14 04:35:51;;;;;;;1.17;0.70;;;;;;;-1.35;77.42;97243.88;6146652;23;20230;-81
2022/01/14 04:38:17;;;;;;;0.63;0.63;;;;;;;-1.34;78.12;97254.03;6145279;23;20181;-81
2022/01/14 04:40:42;;;;;;;0.90;0.90;;;;;;;-1.39;78.60;97250.75;6136780;23;20186;-80
2022/01/14 04:43:07;;;;;;;2.73;1.20;;;;;;;-1.37;78.77;97253.28;6132515;23;20154;-79
2022/01/14 04:48:03;;;;;;;2.93;2.37;;;;;;;-1.40;79.20;97250.81;6133279;23;20214;-80
2022/01/14 04:50:28;;;;;;;2.93;2.10;;;;;;;-1.44;79.42;97252.56;6159491;23;20162;-80
2022/01/14 04:52:54;;;;;;;2.10;1.80;;;;;;;-1.45;79.39;97244.09;6113372;23;20158;-80
2022/01/14 04:55:21;;;;;;;1.20;1.10;;;;;;;-1.40;79.79;97255.91;6145874;23;20157;-80
2022/01/14 04:57:47;;;;;;;0.70;0.60;;;;;;;-1.43;80.33;97244.88;6113761;23;20217;-79
2022/01/14 05:00:17;;;;;;;0.93;0.60;;;;;;;-1.44;80.49;97243.22;6109503;23;20157;-79
2022/01/14 05:02:43;;;;;;;0.70;0.43;;;;;;;-1.45;80.54;97236.44;6131828;23;20169;-81
2022/01/14 05:05:09;;;;;;;0.40;0.40;;;;;;;-1.43;80.70;97233.84;6133329;23;20178;-79
2022/01/14 05:07:35;;;;;;;0.83;0.40;;;;;;;-1.32;80.86;97233.63;6108725;23;20240;-78
2022/01/14 05:12:31;;;;;;;3.77;2.50;;;;;;;-1.29;81.72;97226.75;6140629;23;20471;-80
2022/01/14 05:14:56;;;;;;;5.13;3.57;;;;;;;-1.28;82.33;97227.59;6116768;23;20169;-82
2022/01/14 05:17:22;;;;;;;3.23;2.93;;;;;;;-1.33;82.06;97229.38;6140177;23;20277;-82
2022/01/14 05:19:47;;;;;;;3.40;3.00;;;;;;;-1.35;82.82;97226.88;6138146;23;20161;-80
2022/01/14 05:22:13;;;;;;;4.30;3.40;;;;;;;-1.44;83.10;97227.91;6168998;23;20169;-81
2022/01/14 05:24:38;;;;;;;3.40;2.83;;;;;;;-1.50;83.71;97233.16;6144971;23;20207;-80
2022/01/14 05:27:03;;;;;;;3.23;2.20;;;;;;;-1.53;84.27;97232.38;6143271;23;20244;-80
2022/01/14 05:29:29;;;;;;;3.17;2.37;;;;;;;-1.57;84.29;97231.63;6119025;23;20260;-79
2022/01/14 05:32:02;;;;;;;4.27;3.07;;;;;;;-1.59;85.26;97233.38;6117605;23;20174;-80
2022/01/14 05:34:27;;;;;;;5.67;4.30;;;;;;;-1.60;85.53;97230.81;6144351;23;20150;-81
2022/01/14 05:36:53;;;;;;;6.13;4.47;;;;;;;-1.60;87.22;97235.91;6141832;23;20174;-79
2022/01/14 05:39:20;;;;;;;5.40;4.43;;;;;;;-1.64;86.64;97239.41;6112004;23;20158;-80
2022/01/14 05:41:48;;;;;;;5.80;3.50;;;;;;;-1.69;86.51;97234.41;6134283;23;20170;-79
2022/01/14 05:44:13;;;;;;;6.80;4.47;;;;;;;-1.68;88.34;97233.53;6109776;23;20323;-79
2022/01/14 05:46:39;;;;;;;6.60;4.03;;;;;;;-1.69;88.11;97241.22;6110209;23;20158;-81
2022/01/14 05:49:04;;;;;;;4.37;3.20;;;;;;;-1.72;88.08;97232.78;6109333;23;20173;-80
2022/01/14 05:51:30;;;;;;;5.97;3.83;;;;;;;-1.77;87.93;97241.38;6109204;23;20181;-79
2022/01/14 05:53:55;;;;;;;7.30;4.60;;;;;;;-1.81;88.64;97243.16;6135279;23;20161;-81
2022/01/14 05:56:21;;;;;;;10.90;6.97;;;;;;;-1.83;88.96;97238.97;6134731;23;20156;-80
2022/01/14 05:58:46;;;;;;;9.93;6.60;;;;;;;-1.85;89.09;97240.72;6111478;23;20561;-82
2022/01/14 06:01:11;;;;;;;8.50;5.43;;;;;;;-1.88;88.93;97235.66;6133312;23;20154;-78
2022/01/14 06:03:37;;;;;;;8.83;5.57;;;;;;;-1.91;89.40;97230.63;6127087;23;20180;-80
2022/01/14 06:06:02;;;;;;;7.43;4.07;;;;;;;-1.88;89.54;97228.03;6110052;23;20172;-80
2022/01/14 06:08:28;;;;;;;5.20;3.43;;;;;;;-1.84;89.96;97227.09;6162275;23;20197;-78
2022/01/14 06:10:53;;;;;;;11.70;8.87;;;;;;;-1.76;90.51;97217.59;6136954;23;20181;-81
2022/01/14 06:13:18;;;;;;;8.63;6.00;;;;;;;-1.66;91.13;97223.34;6110237;23;20159;-79
2022/01/14 06:15:44;;;;;;;5.63;4.30;;;;;;;-1.63;91.25;97223.25;6132043;23;20156;-80
2022/01/14 06:18:09;;;;;;;4.07;2.83;;;;;;;-1.59;91.54;97222.31;6132624;23;20182;-78
2022/01/14 06:20:34;;;;;;;3.63;2.20;;;;;;;-1.55;91.75;97218.84;6135602;23;20156;-81
2022/01/14 06:22:59;;;;;;;2.10;1.80;;;;;;;-1.56;91.31;97217.16;6134391;23;20153;-81
2022/01/14 06:25:25;;;;;;;24.83;12.13;;;;;;;-1.50;91.89;97220.44;6132056;23;20166;-81
2022/01/14 06:27:50;;;;;;;17.03;8.53;;;;;;;-1.46;91.25;97218.63;6131165;23;20277;-82
2022/01/14 06:30:16;;;;;;;28.90;13.00;;;;;;;-1.42;91.22;97215.13;6105151;23;20597;-82
2022/01/14 06:32:41;;;;;;;27.07;11.80;;;;;;;-1.31;90.84;97212.38;6132148;23;20190;-82
2022/01/14 06:35:14;;;;;;;28.80;14.47;;;;;;;-1.22;89.91;97217.25;6130984;23;20159;-82
2022/01/14 06:37:40;;;;;;;9.03;5.33;;;;;;;-1.19;89.62;97212.06;6134822;23;20177;-82
2022/01/14 06:40:06;;;;;;;5.60;3.37;;;;;;;-1.15;89.50;97214.53;6110939;23;20604;-81
2022/01/14 06:42:32;;;;;;;9.07;5.57;;;;;;;-1.06;88.62;97202.41;6131262;23;20158;-85
2022/01/14 06:44:57;;;;;;;37.93;20.23;;;;;;;-1.01;87.99;97209.09;6130752;23;20511;-82
2022/01/14 06:47:23;;;;;;;111.77;44.10;;;;;;;-0.98;87.36;97208.16;6130388;23;20189;-81
2022/01/14 06:49:48;;;;;;;103.43;36.03;;;;;;;-1.03;87.88;97207.47;6130587;23;20158;-82
2022/01/14 06:52:13;;;;;;;45.43;20.07;;;;;;;-1.07;87.97;97221.97;6130011;23;20164;-81
2022/01/14 06:54:47;;;;;;;45.27;17.07;;;;;;;-1.13;88.10;97211.94;6129844;23;20158;-81
2022/01/14 06:57:12;;;;;;;37.97;16.90;;;;;;;-1.11;88.86;97207.63;6106099;23;20210;-78
2022/01/14 06:59:38;;;;;;;39.90;16.60;;;;;;;-1.06;89.39;97216.03;6131253;23;20159;-83
2022/01/14 07:02:03;;;;;;;37.53;17.93;;;;;;;-1.05;90.15;97209.22;6130918;23;20173;-82
2022/01/14 07:04:28;;;;;;;39.40;17.83;;;;;;;-1.03;90.44;97205.75;6132451;23;20173;-81
2022/01/14 07:06:54;;;;;;;23.40;12.63;;;;;;;-1.03;91.30;97208.28;6130442;23;20162;-81
2022/01/14 07:09:43;;;;;;;9.23;4.67;;;;;;;-0.99;91.99;97219.25;6134584;23;20194;-83
2022/01/14 07:12:20;;;;;;;2.83;1.57;;;;;;;-1.09;91.80;97216.09;6111481;23;20556;-83
2022/01/14 07:14:50;;;;;;;2.37;0.90;;;;;;;-1.13;91.99;97218.75;6131522;23;20154;-82
2022/01/14 07:22:10;;;;;;;;;;;;;;;;;;;;;
2022/01/14 07:28:03;;;;;;;1.67;1.00;;;;;;;-1.06;94.23;97243.22;6044326;23;20200;-83
2022/01/14 07:30:29;;;;;;;2.20;1.10;;;;;;;-1.09;94.06;97246.69;6021533;23;20177;-83
2022/01/14 07:32:54;;;;;;;2.20;1.67;;;;;;;-1.10;94.57;97252.66;5994335;23;20202;-83
2022/01/14 07:35:25;;;;;;;1.93;1.53;;;;;;;-1.07;95.30;97257.66;6017024;23;20185;-83
2022/01/14 07:41:14;;;;;;;2.57;1.43;;;;;;;-1.06;96.30;97256.81;6021062;23;20168;-83
2022/01/14 07:43:53;;;;;;;2.90;1.70;;;;;;;-1.03;96.56;97254.19;6037729;23;20612;-78
2022/01/14 07:46:20;;;;;;;4.40;2.50;;;;;;;-0.93;97.61;97262.47;6038400;23;20176;-80
2022/01/14 07:48:45;;;;;;;4.60;2.57;;;;;;;-0.93;97.04;97263.31;5992316;23;20331;-81
2022/01/14 07:51:11;;;;;;;8.50;3.63;;;;;;;-0.97;96.84;97261.72;6017877;23;20165;-81
2022/01/14 07:53:37;;;;;;;7.13;4.13;;;;;;;-0.98;96.71;97266.81;6040753;23;20172;-80
2022/01/14 07:56:05;;;;;;;7.87;4.83;;;;;;;-0.98;96.86;97256.63;6066768;23;20169;-81
2022/01/14 07:58:30;;;;;;;12.27;8.13;;;;;;;-0.94;97.26;97259.06;6134403;23;20179;-80
2022/01/14 08:00:55;;;;;;;12.87;8.20;;;;;;;-0.95;97.24;97261.66;6115204;23;20214;-81
2022/01/14 08:03:21;;;;;;;11.07;8.33;;;;;;;-0.92;97.70;97256.47;6135694;23;20639;-80
2022/01/14 08:05:49;;;;;;;13.90;9.07;;;;;;;-0.92;97.29;97264.97;6114664;23;20255;-79
2022/01/14 08:08:14;;;;;;;14.20;7.80;;;;;;;-0.91;97.67;97259.00;6138521;23;20656;-79
2022/01/14 08:10:40;;;;;;;7.90;5.90;;;;;;;-0.79;97.67;97260.44;6113776;23;20158;-82
2022/01/14 08:13:05;;;;;;;9.87;6.73;;;;;;;-0.74;97.64;97260.31;6164434;23;20238;-82
2022/01/14 08:15:31;;;;;;;8.70;6.37;;;;;;;-0.71;96.85;97260.22;6118968;23;20170;-81
2022/01/14 08:17:59;;;;;;;10.60;7.00;;;;;;;-0.66;96.93;97259.25;6116964;23;20188;-80
2022/01/14 08:20:24;;;;;;;13.57;9.80;;;;;;;-0.57;96.35;97265.84;6115349;23;20202;-80
2022/01/14 08:22:49;;;;;;;25.10;13.33;;;;;;;-0.50;96.04;97264.81;6113234;23;20179;-80
2022/01/14 08:25:14;;;;;;;22.43;13.30;;;;;;;-0.41;95.57;97267.13;6113226;23;20234;-80
2022/01/14 08:27:40;;;;;;;31.57;16.23;;;;;;;-0.40;94.71;97261.16;6137944;23;20179;-82
2022/01/14 08:30:06;;;;;;;23.67;14.07;;;;;;;-0.35;94.68;97261.88;6135058;23;20183;-81
2022/01/14 08:32:32;;;;;;;24.80;14.07;;;;;;;-0.31;94.20;97265.19;6159561;23;20623;-80
2022/01/14 08:34:58;;;;;;;29.63;16.43;;;;;;;-0.26;94.33;97262.53;6158000;23;20191;-82
2022/01/14 08:37:23;;;;;;;24.03;12.77;;;;;;;-0.15;94.67;97273.28;6132467;23;20502;-81
2022/01/14 08:39:48;;;;;;;18.17;9.93;;;;;;;-0.07;93.83;97271.38;6134226;23;20170;-78
2022/01/14 08:42:14;;;;;;;15.83;7.67;;;;;;;0.01;92.75;97274.56;6134168;23;20158;-80
2022/01/14 08:44:40;;;;;;;8.50;4.60;;;;;;;0.09;91.92;97279.44;6110339;23;20189;-79
2022/01/14 08:47:10;;;;;;;5.43;3.23;;;;;;;0.17;91.37;97270.69;6110248;23;20179;-80
2022/01/14 08:49:39;;;;;;;8.00;4.20;;;;;;;0.27;91.14;97266.19;6109464;23;20169;-79
2022/01/14 08:52:05;;;;;;;10.80;4.23;;;;;;;0.42;90.67;97264.88;6109268;23;20165;-81
2022/01/14 08:54:30;;;;;;;9.53;5.53;;;;;;;0.44;89.91;97276.75;6110149;23;20155;-80
2022/01/14 08:56:56;;;;;;;14.67;8.33;;;;;;;0.52;90.10;97274.78;6107901;23;20229;-79
2022/01/14 08:59:22;;;;;;;22.67;13.60;;;;;;;0.67;89.42;97273.53;6132705;23;20162;-78
2022/01/14 09:01:47;;;;;;;21.80;11.37;;;;;;;0.84;88.37;97270.47;6134248;23;20154;-78
2022/01/14 09:04:13;;;;;;;21.37;11.83;;;;;;;0.95;88.02;97268.41;6134020;23;20200;-80
2022/01/14 09:06:38;;;;;;;20.10;10.87;;;;;;;1.06;87.18;97268.06;6135504;23;20831;-81
2022/01/14 09:09:03;;;;;;;16.33;9.90;;;;;;;1.19;86.92;97266.81;6136542;23;20198;-80
2022/01/14 09:11:29;;;;;;;20.03;11.23;;;;;;;1.31;85.99;97271.53;6132634;23;20144;-80
2022/01/14 09:13:54;;;;;;;19.50;9.70;;;;;;;1.40;85.80;97263.56;6108131;23;20151;-79
2022/01/14 09:16:20;;;;;;;24.57;11.63;;;;;;;1.48;85.41;97265.88;6110406;23;20190;-80
2022/01/14 09:18:47;;;;;;;17.90;10.40;;;;;;;1.53;85.27;97270.84;6132733;23;20175;-81
2022/01/14 09:21:12;;;;;;;14.70;7.73;;;;;;;1.59;85.24;97266.38;6132365;23;20155;-80
2022/01/14 09:23:38;;;;;;;12.73;7.27;;;;;;;1.70;85.85;97268.56;6108716;23;20194;-82
2022/01/14 09:26:03;;;;;;;13.00;9.03;;;;;;;1.80;85.81;97269.94;6133853;23;20163;-81
2022/01/14 09:28:29;;;;;;;11.67;9.03;;;;;;;1.91;85.49;97267.81;6107848;23;20190;-82
2022/01/14 09:30:54;;;;;;;14.10;10.30;;;;;;;2.05;86.07;97267.38;6110317;23;20254;-81
2022/01/14 09:33:20;;;;;;;13.60;9.73;;;;;;;2.19;86.44;97261.72;6135527;23;20155;-83
2022/01/14 09:35:46;;;;;;;16.27;10.53;;;;;;;2.34;86.16;97256.06;6139428;23;20230;-82
2022/01/14 09:38:12;;;;;;;16.40;11.93;;;;;;;2.46;86.35;97265.84;6136232;23;20179;-81
2022/01/14 09:40:41;;;;;;;15.97;10.50;;;;;;;2.59;86.50;97273.13;6135955;23;20159;-80
2022/01/14 09:43:07;;;;;;;17.03;12.07;;;;;;;2.67;86.57;97269.38;6134741;23;20158;-81
2022/01/14 09:45:34;;;;;;;12.10;9.37;;;;;;;2.74;86.97;97269.97;6159471;23;20155;-82
2022/01/14 09:48:00;;;;;;;8.17;6.83;;;;;;;2.83;87.90;97275.63;6133306;23;20237;-81
2022/01/14 09:50:25;;;;;;;7.10;5.87;;;;;;;2.93;88.03;97277.81;6106793;23;20155;-79
2022/01/14 09:52:51;;;;;;;7.33;5.87;;;;;;;3.03;88.49;97282.53;6105037;23;20155;-79
2022/01/14 09:55:18;;;;;;;5.03;4.53;;;;;;;3.13;88.17;97283.00;6130503;23;20147;-78
2022/01/14 09:57:44;;;;;;;5.70;4.93;;;;;;;3.26;87.74;97278.22;6132551;23;20182;-80
2022/01/14 10:00:09;;;;;;;22.57;17.73;;;;;;;3.37;87.32;97282.06;6110134;23;20160;-80
2022/01/14 10:02:40;;;;;;;9.57;8.03;;;;;;;3.54;86.33;97278.81;6142964;23;20147;-79
2022/01/14 10:05:10;;;;;;;3.23;2.50;;;;;;;3.67;84.83;97284.28;6141709;23;20190;-81
2022/01/14 10:07:36;;;;;;;2.77;2.47;;;;;;;3.70;85.03;97284.13;6165471;23;20290;-81
2022/01/14 10:10:22;;;;;;;2.40;2.13;;;;;;;3.82;85.08;97286.22;6139787;23;20161;-80
2022/01/14 10:12:48;;;;;;;2.67;1.80;;;;;;;3.92;84.41;97286.66;6162710;23;20169;-80
2022/01/14 10:15:13;;;;;;;1.63;1.47;;;;;;;4.07;83.78;97286.03;6135923;23;20194;-80
2022/01/14 10:17:41;;;;;;;1.73;1.60;;;;;;;4.21;82.00;97281.09;6141461;23;20179;-80
2022/01/14 10:20:09;;;;;;;2.40;1.70;;;;;;;4.31;80.76;97280.69;6114325;23;20188;-80
2022/01/14 10:22:40;;;;;;;2.53;1.70;;;;;;;4.45;79.76;97283.50;6167384;23;20154;-81
2022/01/14 10:25:09;;;;;;;2.47;1.20;;;;;;;4.59;79.31;97285.47;6116882;23;20258;-79
2022/01/14 10:27:44;;;;;;;1.53;1.43;;;;;;;4.65;80.09;97285.19;6115602;23;20215;-82
2022/01/14 10:30:12;;;;;;;1.60;1.10;;;;;;;4.72;81.11;97284.84;6165175;23;20163;-80
2022/01/14 10:32:38;;;;;;;1.70;1.60;;;;;;;4.80;81.55;97280.19;6167165;23;20288;-79
2022/01/14 10:35:25;;;;;;;2.53;1.40;;;;;;;4.84;81.59;97275.72;6118369;23;20162;-81
2022/01/14 10:37:50;;;;;;;1.67;1.00;;;;;;;4.91;82.13;97269.41;6117747;23;20190;-80
2022/01/14 10:40:19;;;;;;;1.20;1.10;;;;;;;4.99;81.79;97271.63;6169879;23;20143;-80
2022/01/14 10:42:45;;;;;;;1.37;1.27;;;;;;;5.04;81.65;97267.94;6117560;23;20161;-80
2022/01/14 10:45:22;;;;;;;4.83;1.20;;;;;;;5.11;81.55;97268.47;6116693;23;20214;-81
2022/01/14 10:47:53;;;;;;;3.00;1.93;;;;;;;5.19;81.36;97268.09;6142267;23;20510;-80
2022/01/14 10:50:36;;;;;;;7.83;4.93;;;;;;;5.07;80.39;97272.94;6166615;23;20178;-80
2022/01/14 10:53:08;;;;;;;5.20;4.70;;;;;;;5.10;80.50;97265.06;6115289;23;20166;-79
2022/01/14 10:55:40;;;;;;;6.23;5.73;;;;;;;5.18;80.74;97264.69;6115395;23;20241;-79
2022/01/14 10:58:11;;;;;;;6.03;4.67;;;;;;;5.23;80.01;97261.91;6138824;23;20178;-81
2022/01/14 11:00:46;;;;;;;8.37;7.57;;;;;;;5.13;79.43;97261.53;6134654;23;20150;-80
2022/01/14 11:03:11;;;;;;;6.07;3.93;;;;;;;5.09;78.49;97254.81;6113058;23;20597;-80
2022/01/14 11:05:36;;;;;;;6.63;5.07;;;;;;;5.12;77.95;97246.94;6113378;23;20167;-80
2022/01/14 11:08:02;;;;;;;25.20;16.33;;;;;;;5.27;76.23;97253.13;6116347;23;20179;-81
2022/01/14 11:10:32;;;;;;;30.53;20.20;;;;;;;5.25;76.83;97239.50;6140634;23;20166;-80
2022/01/14 11:12:58;;;;;;;10.80;7.83;;;;;;;5.25;76.36;97242.91;6116106;23;20155;-80
2022/01/14 11:15:25;;;;;;;13.23;7.63;;;;;;;5.31;75.91;97234.06;6117829;23;20167;-80
2022/01/14 11:17:53;;;;;;;12.40;7.87;;;;;;;5.40;74.51;97233.59;6141519;23;20205;-79
2022/01/14 11:20:25;;;;;;;17.57;10.93;;;;;;;5.40;74.27;97228.44;6143541;23;20626;-80
2022/01/14 11:25:42;;;;;;;3.93;2.80;;;;;;;5.47;71.98;97219.47;6145629;23;20605;-80
2022/01/14 11:28:08;;;;;;;3.33;1.80;;;;;;;5.53;70.66;97216.63;6139319;23;20178;-79
2022/01/14 11:30:39;;;;;;;1.60;1.43;;;;;;;5.52;69.78;97211.53;6139114;23;20174;-78
2022/01/14 11:33:05;;;;;;;3.17;2.10;;;;;;;5.60;67.34;97209.41;6133680;23;20147;-82
2022/01/14 11:35:32;;;;;;;0.87;0.87;;;;;;;5.65;63.74;97207.44;6137611;23;20797;-82
2022/01/14 11:37:58;;;;;;;1.60;1.00;;;;;;;5.76;61.58;97201.75;6138764;23;20241;-80
2022/01/14 11:40:24;;;;;;;1.03;0.90;;;;;;;5.75;61.50;97208.66;6135727;23;20167;-80
2022/01/14 11:43:01;;;;;;;2.27;1.03;;;;;;;5.83;61.36;97201.38;6160290;23;20155;-81
2022/01/14 11:45:39;;;;;;;0.70;0.70;;;;;;;6.00;58.48;97197.94;6137601;23;20167;-81
2022/01/14 11:48:04;;;;;;;1.17;0.80;;;;;;;6.00;59.90;97197.94;6163154;23;20182;-81
2022/01/14 11:50:30;;;;;;;1.13;0.90;;;;;;;6.04;59.89;97190.88;6139422;23;20656;-81
2022/01/14 11:52:57;;;;;;;1.60;1.03;;;;;;;6.14;56.57;97189.50;6162902;23;20237;-81
2022/01/14 11:55:23;;;;;;;11.33;5.57;;;;;;;6.18;55.27;97189.25;6115565;23;20152;-81
2022/01/14 11:57:52;;;;;;;0.87;0.80;;;;;;;6.20;53.78;97189.19;6163219;23;20179;-81
2022/01/14 12:00:40;;;;;;;1.90;1.77;;;;;;;6.26;53.55;97178.53;6161879;23;20167;-81
2022/01/14 12:03:13;;;;;;;0.80;0.70;;;;;;;6.33;52.52;97174.69;6161981;23;20267;-81
2022/01/14 12:05:53;;;;;;;2.50;1.87;;;;;;;6.42;51.76;97179.38;6160530;23;20178;-80
2022/01/14 12:08:27;;;;;;;2.53;1.50;;;;;;;6.45;51.76;97174.06;6136062;23;20207;-82
2022/01/14 12:11:20;;;;;;;2.07;1.20;;;;;;;6.46;52.67;97170.56;6162108;23;20162;-81
2022/01/14 12:13:55;;;;;;;0.83;0.83;;;;;;;6.53;50.35;97173.63;6128442;23;20155;-79
2022/01/14 12:16:38;;;;;;;9.40;6.20;;;;;;;6.61;50.44;97173.22;6138876;23;20150;-80
2022/01/14 12:19:05;;;;;;;3.07;2.57;;;;;;;6.65;50.52;97162.66;6139345;23;20242;-80
2022/01/14 12:21:50;;;;;;;1.00;0.90;;;;;;;6.74;49.73;97161.31;6108386;23;20163;-82
2022/01/14 12:24:18;;;;;;;1.70;1.23;;;;;;;6.70;50.06;97152.06;6156174;23;20439;-80
2022/01/14 12:27:08;;;;;;;3.67;3.00;;;;;;;6.75;49.48;97152.66;6157215;23;20159;-81
2022/01/14 12:29:39;;;;;;;3.37;2.27;;;;;;;6.75;48.18;97140.56;6156068;23;20222;-81
2022/01/14 12:32:12;;;;;;;25.87;12.70;;;;;;;6.82;47.65;97146.22;6106688;23;20178;-81
2022/01/14 12:34:44;;;;;;;6.30;3.67;;;;;;;6.87;47.19;97136.47;6108527;23;20197;-82
2022/01/14 12:37:15;;;;;;;0.93;0.80;;;;;;;6.94;47.40;97142.94;6163212;23;20230;-82
2022/01/14 12:39:40;;;;;;;0.70;0.70;;;;;;;6.99;46.22;97140.13;6133775;23;20230;-81
2022/01/14 12:42:06;;;;;;;0.70;0.47;;;;;;;7.05;44.52;97140.59;6157650;23;20147;-80
2022/01/14 12:44:38;;;;;;;0.30;0.30;;;;;;;7.12;44.51;97142.81;6130111;23;20179;-83
2022/01/14 12:47:07;;;;;;;0.73;0.70;;;;;;;7.33;43.30;97132.09;6105797;23;20175;-80
2022/01/14 12:49:37;;;;;;;1.33;0.80;;;;;;;7.37;46.87;97143.09;6106093;23;20239;-81
2022/01/14 12:52:05;;;;;;;1.63;0.70;;;;;;;7.36;47.68;97131.09;6129568;23;20162;-81
2022/01/14 12:54:38;;;;;;;1.33;1.23;;;;;;;7.26;49.89;97148.06;6129401;23;20246;-81
2022/01/14 12:57:04;;;;;;;3.70;1.73;;;;;;;7.30;51.81;97134.00;6105254;23;20175;-80
2022/01/14 12:59:45;;;;;;;3.83;2.70;;;;;;;7.13;53.00;97136.75;6131173;23;20205;-83
2022/01/14 13:02:19;;;;;;;2.80;1.60;;;;;;;7.15;51.58;97132.31;6129005;23;20162;-80
2022/01/14 13:04:44;;;;;;;3.77;2.40;;;;;;;7.16;52.32;97126.25;6129685;23;20207;-80
2022/01/14 13:07:11;;;;;;;3.30;1.93;;;;;;;7.17;51.73;97127.91;6130067;23;20175;-81
2022/01/14 13:09:39;;;;;;;4.10;2.50;;;;;;;7.07;52.40;97125.84;6129636;23;20162;-80
2022/01/14 13:12:06;;;;;;;2.20;1.90;;;;;;;7.10;51.85;97124.84;6129532;23;20166;-81
2022/01/14 13:14:44;;;;;;;2.43;1.90;;;;;;;7.09;52.29;97118.00;6130019;23;20187;-80